Time;durP1;ratioP1;P1;durP2;ratioP2;P2;SDS_P1;SDS_P2;PMS_P1;PMS_P2;Temp;Humidity;BMP_temperature;BMP_pressure;BME280_temperature;BME280_humidity;BME280_pressure;Samples;Min_cycle;Max_cycle;Signal;HPM_P1;HPM_P2
2023/10/11 00:02:59;;;;;;;31.35;13.77;;;17.20;99.90;;;;;;5066731;28;20083;-68
2023/10/11 00:05:33;;;;;;;37.63;14.63;;;17.20;99.90;;;;;;5057825;28;20095;-68
2023/10/11 00:08:04;;;;;;;35.55;13.93;;;17.20;99.90;;;;;;5065455;28;20139;-69
2023/10/11 00:10:30;;;;;;;;;;;17.20;99.90;;;;;;5066308;28;20052;-69
2023/10/11 00:12:58;;;;;;;29.48;13.95;;;17.20;99.90;;;;;;5071954;28;20673;-69
2023/10/11 00:15:29;;;;;;;41.40;14.75;;;17.20;99.90;;;;;;5063447;28;20047;-69
2023/10/11 00:17:58;;;;;;;37.88;14.13;;;17.20;99.90;;;;;;5068484;28;20052;-69
2023/10/11 00:20:44;;;;;;;34.20;13.95;;;17.20;99.90;;;;;;5065093;28;20044;-69
2023/10/11 00:23:14;;;;;;;44.05;15.18;;;17.20;99.90;;;;;;5102285;27;20048;-70
2023/10/11 00:25:39;;;;;;;36.08;13.38;;;17.20;99.90;;;;;;5070821;28;20549;-69
2023/10/11 00:28:08;;;;;;;41.55;14.88;;;17.20;99.90;;;;;;5067202;28;20134;-69
2023/10/11 00:30:40;;;;;;;33.65;15.02;;;17.20;99.90;;;;;;5096533;27;20041;-69
2023/10/11 00:33:09;;;;;;;41.88;14.32;;;17.20;99.90;;;;;;5097522;27;20051;-70
2023/10/11 00:35:48;;;;;;;36.15;14.27;;;17.20;99.90;;;;;;5064844;28;20113;-69
2023/10/11 00:38:19;;;;;;;33.00;14.50;;;17.20;99.90;;;;;;5075653;28;20043;-69
2023/10/11 00:41:39;;;;;;;31.92;13.02;;;17.20;99.90;;;;;;5065239;28;20044;-69
2023/10/11 00:43:36;;;;;;;37.97;14.67;;;17.20;99.90;;;;;;5067880;28;20661;-69
2023/10/11 00:46:08;;;;;;;37.72;14.10;;;17.20;99.90;;;;;;5064882;28;20292;-69
2023/10/11 00:48:46;;;;;;;35.25;14.25;;;17.20;99.90;;;;;;5064934;28;20055;-69
2023/10/11 00:51:14;;;;;;;42.28;15.30;;;17.20;99.90;;;;;;5066162;28;20059;-69
2023/10/11 00:53:40;;;;;;;40.72;14.25;;;17.20;99.90;;;;;;5070674;28;20111;-69
2023/10/11 00:56:06;;;;;;;37.80;13.27;;;17.20;99.90;;;;;;5069045;28;20057;-69
2023/10/11 00:58:33;;;;;;;43.72;14.10;;;17.20;99.90;;;;;;5069232;28;20040;-69
2023/10/11 01:01:03;;;;;;;38.20;14.43;;;17.20;99.90;;;;;;5065198;28;20139;-69
2023/10/11 01:03:33;;;;;;;40.03;14.77;;;17.10;99.90;;;;;;5068317;28;20047;-70
2023/10/11 01:06:00;;;;;;;45.40;15.32;;;17.20;99.90;;;;;;5056071;28;20056;-68
2023/10/11 01:08:38;;;;;;;36.22;13.88;;;17.20;99.90;;;;;;5049488;28;20088;-69
2023/10/11 01:11:14;;;;;;;36.05;13.55;;;17.10;99.90;;;;;;5063932;28;20044;-69
2023/10/11 01:13:50;;;;;;;35.17;13.98;;;17.20;99.90;;;;;;5080966;28;20045;-69
2023/10/11 01:16:18;;;;;;;34.95;14.25;;;17.10;99.90;;;;;;5066511;28;20059;-69
2023/10/11 01:18:44;;;;;;;37.33;14.52;;;17.10;99.90;;;;;;5060714;28;20618;-70
2023/10/11 01:21:12;;;;;;;35.80;13.45;;;17.10;99.90;;;;;;5064920;28;20036;-70
2023/10/11 01:23:38;;;;;;;39.92;13.52;;;17.10;99.90;;;;;;5062925;28;20036;-69
2023/10/11 01:26:08;;;;;;;35.53;13.93;;;17.10;99.90;;;;;;5064370;28;20505;-69
2023/10/11 01:28:35;;;;;;;42.63;14.05;;;17.10;99.90;;;;;;5081843;28;20091;-69
2023/10/11 01:31:08;;;;;;;31.60;13.38;;;17.10;99.90;;;;;;5069297;28;20781;-69
2023/10/11 01:33:40;;;;;;;33.50;13.43;;;17.10;99.90;;;;;;5084603;28;20048;-69
2023/10/11 01:36:08;;;;;;;41.53;14.38;;;17.10;99.90;;;;;;5064679;28;20048;-69
2023/10/11 01:38:47;;;;;;;35.47;14.70;;;17.10;99.90;;;;;;5052730;28;20103;-69
2023/10/11 01:41:19;;;;;;;46.53;14.60;;;17.10;99.90;;;;;;5098828;27;20137;-69
2023/10/11 01:43:49;;;;;;;37.08;14.07;;;17.10;99.90;;;;;;5068448;28;20061;-70
2023/10/11 01:46:27;;;;;;;37.92;14.10;;;17.10;99.90;;;;;;5085387;28;20207;-70
2023/10/11 01:48:54;;;;;;;32.60;12.30;;;17.10;99.90;;;;;;5089687;28;20044;-70
2023/10/11 01:51:26;;;;;;;41.28;14.40;;;17.10;99.90;;;;;;5068448;28;20059;-69
2023/10/11 01:53:52;;;;;;;;;;;17.10;99.90;;;;;;5082748;28;20079;-70
2023/10/11 01:56:18;;;;;;;35.58;12.73;;;17.10;99.90;;;;;;5065139;28;19948;-69
2023/10/11 01:58:43;;;;;;;37.63;12.75;;;17.10;99.90;;;;;;5065372;28;20446;-70
2023/10/11 02:01:25;;;;;;;36.00;13.32;;;17.00;99.90;;;;;;5073176;28;20048;-69
2023/10/11 02:03:56;;;;;;;37.72;13.50;;;17.00;99.90;;;;;;5050388;28;20044;-69
2023/10/11 02:06:23;;;;;;;37.85;13.52;;;17.00;99.90;;;;;;5071756;28;20052;-69
2023/10/11 02:08:50;;;;;;;36.22;12.57;;;17.00;99.90;;;;;;5052015;28;20057;-69
2023/10/11 02:11:16;;;;;;;32.13;12.27;;;17.00;99.90;;;;;;5065577;28;20052;-69
2023/10/11 02:13:43;;;;;;;32.50;13.07;;;17.00;99.90;;;;;;5051806;28;20048;-69
2023/10/11 02:16:14;;;;;;;36.58;13.48;;;17.00;99.90;;;;;;5081137;28;20048;-69
2023/10/11 02:18:41;;;;;;;45.60;13.57;;;17.10;99.90;;;;;;5072128;28;20056;-69
2023/10/11 02:21:06;;;;;;;35.85;13.32;;;17.00;99.90;;;;;;5069177;28;20040;-70
2023/10/11 02:23:39;;;;;;;34.88;13.50;;;17.00;99.90;;;;;;5068168;28;20047;-69
2023/10/11 02:26:12;;;;;;;41.38;12.40;;;16.90;99.90;;;;;;5075903;28;20131;-68
2023/10/11 02:28:45;;;;;;;36.85;12.50;;;17.00;99.90;;;;;;5058602;28;20052;-70
2023/10/11 02:31:19;;;;;;;42.47;12.40;;;17.00;99.90;;;;;;5081520;28;20079;-69
2023/10/11 02:33:46;;;;;;;35.72;12.05;;;17.00;99.90;;;;;;5069074;28;20052;-69
2023/10/11 02:36:18;;;;;;;34.58;11.45;;;16.90;99.90;;;;;;5068582;28;20408;-68
2023/10/11 02:38:49;;;;;;;38.90;11.70;;;17.00;99.90;;;;;;5068796;28;20053;-69
2023/10/11 02:41:20;;;;;;;;;;;16.90;99.90;;;;;;5081774;28;20413;-70
2023/10/11 02:43:49;;;;;;;30.73;11.65;;;16.90;99.90;;;;;;5069127;28;19928;-69
2023/10/11 02:46:24;;;;;;;32.40;11.93;;;16.90;99.90;;;;;;5053869;28;20077;-69
2023/10/11 02:49:05;;;;;;;34.05;12.73;;;16.90;99.90;;;;;;5097370;27;20476;-69
2023/10/11 02:51:33;;;;;;;39.35;12.05;;;16.90;99.90;;;;;;5084932;28;20143;-69
2023/10/11 02:54:05;;;;;;;30.55;12.35;;;16.90;99.90;;;;;;5097914;27;20055;-70
2023/10/11 02:56:49;;;;;;;34.58;12.30;;;16.90;99.90;;;;;;5067105;28;20098;-69
2023/10/11 02:59:25;;;;;;;31.50;10.70;;;16.90;99.90;;;;;;5100378;27;20043;-69
2023/10/11 03:02:03;;;;;;;37.33;13.05;;;16.90;99.90;;;;;;5066889;28;20105;-69
2023/10/11 03:04:32;;;;;;;26.13;10.90;;;16.90;99.90;;;;;;5054599;28;20149;-70
2023/10/11 03:07:00;;;;;;;32.17;12.10;;;16.80;99.90;;;;;;5100082;27;20044;-69
2023/10/11 03:09:27;;;;;;;34.47;12.10;;;16.80;99.90;;;;;;5075728;28;20051;-69
2023/10/11 03:11:56;;;;;;;34.20;12.85;;;16.80;99.90;;;;;;5069969;28;20090;-69
2023/10/11 03:14:25;;;;;;;40.17;13.50;;;16.80;99.90;;;;;;5069769;28;20397;-69
2023/10/11 03:16:56;;;;;;;36.83;12.30;;;16.80;99.90;;;;;;5065947;28;20048;-69
2023/10/11 03:19:24;;;;;;;32.22;12.05;;;16.80;99.90;;;;;;5072076;28;20049;-68
2023/10/11 03:21:54;;;;;;;34.15;12.73;;;16.80;99.90;;;;;;5069821;28;20048;-69
2023/10/11 03:24:21;;;;;;;35.85;13.10;;;16.80;99.90;;;;;;5067420;28;20087;-69
2023/10/11 03:26:48;;;;;;;38.35;12.65;;;16.80;99.90;;;;;;5072623;28;20630;-69
2023/10/11 03:29:21;;;;;;;28.70;10.98;;;16.80;99.90;;;;;;5094374;27;20048;-69
2023/10/11 03:31:47;;;;;;;32.90;13.05;;;16.80;99.90;;;;;;5066543;28;20048;-69
2023/10/11 03:34:20;;;;;;;27.60;11.95;;;16.80;99.90;;;;;;5078914;28;20106;-68
2023/10/11 03:36:51;;;;;;;34.95;12.65;;;16.80;99.90;;;;;;5070938;28;20412;-69
2023/10/11 03:42:07;;;;;;;43.53;12.40;;;16.70;99.90;;;;;;5064640;28;20174;-68
2023/10/11 03:44:36;;;;;;;32.63;11.85;;;16.70;99.90;;;;;;5064550;28;20118;-68
2023/10/11 03:47:07;;;;;;;31.90;10.73;;;16.70;99.90;;;;;;5052900;28;20056;-68
2023/10/11 03:49:51;;;;;;;34.85;11.00;;;16.70;99.90;;;;;;5065447;28;20044;-68
2023/10/11 03:54:47;;;;;;;32.28;10.90;;;16.70;99.90;;;;;;5066613;28;20041;-70
2023/10/11 03:57:17;;;;;;;24.90;10.32;;;16.70;99.90;;;;;;5070973;28;20594;-69
2023/10/11 03:59:48;;;;;;;25.10;11.68;;;16.70;99.90;;;;;;5068588;28;20124;-69
2023/10/11 04:02:17;;;;;;;;;;;16.70;99.90;;;;;;5099200;27;20127;-69
2023/10/11 04:04:49;;;;;;;31.60;11.07;;;16.70;99.90;;;;;;5066505;28;20300;-69
2023/10/11 04:07:22;;;;;;;34.05;11.15;;;16.70;99.90;;;;;;5068837;28;20633;-69
2023/10/11 04:09:49;;;;;;;41.92;12.45;;;16.70;99.90;;;;;;5068984;28;20553;-69
2023/10/11 04:12:15;;;;;;;32.20;11.00;;;16.70;99.90;;;;;;5068866;28;20048;-69
2023/10/11 04:14:45;;;;;;;30.80;9.85;;;16.70;99.90;;;;;;5067508;28;20069;-69
2023/10/11 04:20:17;;;;;;;24.38;9.98;;;16.70;99.90;;;;;;5071862;28;20044;-69
2023/10/11 04:22:50;;;;;;;31.17;9.52;;;16.70;99.90;;;;;;5066261;28;20079;-69
2023/10/11 04:25:18;;;;;;;28.08;9.88;;;16.70;99.90;;;;;;5068792;28;20795;-69
2023/10/11 04:33:01;;;;;;;34.85;11.40;;;16.60;99.90;;;;;;5065507;28;20067;-68
2023/10/11 04:35:36;;;;;;;31.83;9.95;;;16.70;99.90;;;;;;5065210;28;20047;-69
2023/10/11 04:38:04;;;;;;;30.90;10.52;;;16.70;99.90;;;;;;5067592;28;20047;-69
2023/10/11 04:43:04;;;;;;;29.88;10.98;;;16.70;99.90;;;;;;5097784;27;20055;-68
2023/10/11 04:45:46;;;;;;;35.20;11.35;;;16.70;99.90;;;;;;5092421;27;20048;-69
2023/10/11 04:48:29;;;;;;;31.88;10.73;;;16.70;99.90;;;;;;5064247;28;20064;-68
2023/10/11 04:51:04;;;;;;;28.90;10.85;;;16.70;99.90;;;;;;5071778;28;20048;-68
2023/10/11 04:53:34;;;;;;;32.45;11.43;;;16.70;99.90;;;;;;5064297;28;20266;-69
2023/10/11 04:56:09;;;;;;;33.65;10.35;;;16.70;99.90;;;;;;5094404;28;20052;-69
2023/10/11 04:58:42;;;;;;;33.45;11.38;;;16.70;99.90;;;;;;5065057;28;20217;-69
2023/10/11 05:01:12;;;;;;;27.45;10.43;;;16.70;99.90;;;;;;5061807;28;21647;-69
2023/10/11 05:03:42;;;;;;;35.30;11.30;;;16.70;99.90;;;;;;5065409;28;20075;-68
2023/10/11 05:06:15;;;;;;;32.40;11.45;;;16.70;99.90;;;;;;5070288;28;20048;-69
2023/10/11 05:08:51;;;;;;;27.42;10.57;;;16.70;99.90;;;;;;5063309;28;20052;-69
2023/10/11 05:11:36;;;;;;;33.88;11.45;;;16.70;99.90;;;;;;5065264;28;20052;-69
2023/10/11 05:16:50;;;;;;;26.33;9.93;;;16.60;99.90;;;;;;5069702;28;20129;-69
2023/10/11 05:19:20;;;;;;;31.67;12.10;;;16.70;99.90;;;;;;5065453;28;20143;-69
2023/10/11 05:21:53;;;;;;;29.45;10.48;;;16.60;99.90;;;;;;5095035;28;20627;-69
2023/10/11 05:27:12;;;;;;;37.70;11.80;;;16.70;99.90;;;;;;5096245;28;20059;-69
2023/10/11 05:32:32;;;;;;;25.10;11.50;;;16.60;99.90;;;;;;5069866;28;20059;-69
2023/10/11 05:36:14;;;;;;;34.42;11.95;;;16.60;99.90;;;;;;5073999;28;20055;-69
2023/10/11 05:51:43;;;;;;;28.05;11.35;;;16.60;99.90;;;;;;5058443;28;20146;-69
2023/10/11 05:54:11;;;;;;;34.80;12.10;;;16.60;99.90;;;;;;5090535;27;20048;-68
2023/10/11 05:56:45;;;;;;;34.40;12.55;;;16.70;99.90;;;;;;5043826;28;20052;-69
2023/10/11 05:59:14;;;;;;;36.78;12.55;;;16.70;99.90;;;;;;5048720;28;20108;-69
2023/10/11 06:01:47;;;;;;;38.38;13.07;;;16.70;99.90;;;;;;5059899;28;20128;-68
2023/10/11 06:04:14;;;;;;;26.10;11.93;;;16.70;99.90;;;;;;5057263;28;20143;-69
2023/10/11 06:06:45;;;;;;;30.40;11.82;;;16.60;99.90;;;;;;5062438;28;20079;-69
2023/10/11 06:09:17;;;;;;;32.80;11.43;;;16.70;99.90;;;;;;5065326;28;20036;-68
2023/10/11 06:11:50;;;;;;;28.63;11.27;;;16.70;99.90;;;;;;5059266;28;20444;-68
2023/10/11 06:14:20;;;;;;;28.05;10.80;;;16.70;99.90;;;;;;5063378;28;20162;-69
2023/10/11 06:17:06;;;;;;;33.53;11.70;;;16.70;99.90;;;;;;5068042;28;20067;-69
2023/10/11 06:19:32;;;;;;;26.83;10.25;;;16.70;99.90;;;;;;5068670;28;21846;-68
2023/10/11 06:22:09;;;;;;;29.15;11.38;;;16.70;99.90;;;;;;5071638;28;20044;-69
2023/10/11 06:24:39;;;;;;;31.50;11.60;;;16.70;99.90;;;;;;5074649;28;20046;-69
2023/10/11 06:29:56;;;;;;;33.30;10.98;;;16.80;99.90;;;;;;5070926;28;20056;-69
2023/10/11 06:32:23;;;;;;;30.15;11.82;;;16.70;99.90;;;;;;5053119;28;20471;-69
2023/10/11 06:34:50;;;;;;;35.10;10.65;;;16.80;99.90;;;;;;5070802;28;20500;-69
2023/10/11 06:37:24;;;;;;;29.20;11.27;;;16.70;99.90;;;;;;5069969;28;20116;-69
2023/10/11 06:42:31;;;;;;;26.00;10.05;;;16.80;99.90;;;;;;5068818;28;20039;-69
2023/10/11 06:45:01;;;;;;;34.90;11.50;;;16.80;99.90;;;;;;5065018;28;20069;-68
2023/10/11 06:47:35;;;;;;;28.58;10.40;;;16.80;99.90;;;;;;5044555;28;20052;-69
2023/10/11 06:50:12;;;;;;;29.00;10.85;;;16.80;99.90;;;;;;5066447;28;20060;-68
2023/10/11 06:52:45;;;;;;;34.78;11.23;;;16.80;99.90;;;;;;5067722;28;20047;-68
2023/10/11 06:57:45;;;;;;;36.05;10.70;;;16.90;99.90;;;;;;5067927;28;20063;-66
2023/10/11 07:00:37;;;;;;;28.00;10.48;;;16.90;99.90;;;;;;5057095;28;20048;-66
2023/10/11 07:03:21;;;;;;;28.60;9.75;;;16.90;99.90;;;;;;5052374;28;20370;-66
2023/10/11 07:05:56;;;;;;;29.90;9.90;;;16.90;99.90;;;;;;5051846;28;20059;-66
2023/10/11 07:08:31;;;;;;;30.92;10.15;;;16.90;99.90;;;;;;5063964;28;20040;-66
2023/10/11 07:11:04;;;;;;;34.80;11.25;;;16.90;99.90;;;;;;5097740;27;20051;-66
2023/10/11 07:16:21;;;;;;;25.45;9.73;;;16.90;99.90;;;;;;5070155;28;20048;-65
2023/10/11 07:18:48;;;;;;;29.50;10.02;;;17.00;99.90;;;;;;5066343;28;20471;-65
2023/10/11 07:21:19;;;;;;;34.28;9.85;;;17.00;99.90;;;;;;5054388;28;20067;-66
2023/10/11 07:26:47;;;;;;;32.58;10.30;;;17.00;99.90;;;;;;5057677;28;20059;-66
2023/10/11 07:29:12;;;;;;;35.95;10.65;;;17.00;99.90;;;;;;5058656;28;20048;-66
2023/10/11 07:31:48;;;;;;;29.15;10.32;;;17.00;99.90;;;;;;5093347;27;20048;-66
2023/10/11 07:34:17;;;;;;;30.90;10.07;;;17.10;99.90;;;;;;5063724;28;20052;-66
2023/10/11 07:36:43;;;;;;;26.75;9.70;;;17.10;99.90;;;;;;5054296;28;20059;-68
2023/10/11 07:39:25;;;;;;;25.63;10.23;;;17.10;99.90;;;;;;5059668;28;20120;-66
2023/10/11 07:42:08;;;;;;;26.30;9.48;;;17.10;99.90;;;;;;5059253;28;20125;-65
2023/10/11 07:44:38;;;;;;;30.15;9.77;;;17.10;99.90;;;;;;5060290;28;20041;-66
2023/10/11 07:47:15;;;;;;;33.83;10.63;;;17.10;99.90;;;;;;5059982;28;20131;-66
2023/10/11 07:49:41;;;;;;;32.08;10.38;;;17.20;99.90;;;;;;5060966;28;20402;-66
2023/10/11 07:52:09;;;;;;;28.50;10.32;;;17.20;99.90;;;;;;5059578;28;20037;-66
2023/10/11 07:54:36;;;;;;;24.55;9.75;;;17.20;99.90;;;;;;5044779;28;20133;-66
2023/10/11 07:57:03;;;;;;;29.95;10.93;;;17.20;99.90;;;;;;5068296;28;20051;-66
2023/10/11 07:59:30;;;;;;;25.77;10.65;;;17.20;99.90;;;;;;5099029;27;20052;-66
2023/10/11 08:02:08;;;;;;;29.75;10.55;;;17.30;99.90;;;;;;5070366;28;20052;-66
2023/10/11 08:04:36;;;;;;;32.20;11.18;;;17.30;99.90;;;;;;5068443;28;20211;-66
2023/10/11 08:07:12;;;;;;;28.50;10.63;;;17.30;99.90;;;;;;5065125;28;20227;-66
2023/10/11 08:09:48;;;;;;;25.33;9.27;;;17.30;99.90;;;;;;5067536;28;20116;-66
2023/10/11 08:12:19;;;;;;;25.20;9.88;;;17.30;99.90;;;;;;5066280;28;20523;-66
2023/10/11 08:14:45;;;;;;;24.65;9.82;;;17.30;99.90;;;;;;5096766;27;20052;-66
2023/10/11 08:17:15;;;;;;;27.02;9.63;;;17.30;99.90;;;;;;5064791;28;20052;-66
2023/10/11 08:19:44;;;;;;;31.00;10.02;;;17.30;99.90;;;;;;5070970;28;20409;-66
2023/10/11 08:22:14;;;;;;;23.95;9.77;;;17.30;99.90;;;;;;5071240;28;20083;-66
2023/10/11 08:24:48;;;;;;;33.33;10.35;;;17.30;99.90;;;;;;5101590;27;20105;-66
2023/10/11 08:27:22;;;;;;;27.58;9.32;;;17.30;99.90;;;;;;5081123;28;20052;-66
2023/10/11 08:29:53;;;;;;;24.67;10.00;;;17.40;99.90;;;;;;5064274;28;20130;-66
2023/10/11 08:32:18;;;;;;;20.00;8.97;;;17.30;99.90;;;;;;5065798;28;20036;-66
2023/10/11 08:34:46;;;;;;;20.65;8.63;;;17.40;99.90;;;;;;5065125;28;20674;-66
2023/10/11 08:37:14;;;;;;;20.25;9.73;;;17.40;99.90;;;;;;5067831;28;20725;-66
2023/10/11 08:39:44;;;;;;;24.08;9.90;;;17.40;99.90;;;;;;5042840;28;20058;-66
2023/10/11 08:42:16;;;;;;;24.30;9.32;;;17.50;99.90;;;;;;5065747;28;20055;-66
2023/10/11 08:44:46;;;;;;;24.23;9.48;;;17.40;99.90;;;;;;5072547;28;20074;-65
2023/10/11 08:47:16;;;;;;;25.20;9.98;;;17.40;99.90;;;;;;5076097;28;20162;-66
2023/10/11 08:49:51;;;;;;;22.27;9.77;;;17.40;99.90;;;;;;5070579;28;20394;-65
2023/10/11 08:52:29;;;;;;;21.65;9.52;;;17.40;99.90;;;;;;5068891;28;20778;-67
2023/10/11 08:54:55;;;;;;;23.27;9.73;;;17.40;99.90;;;;;;5060791;28;20539;-69
2023/10/11 08:57:31;;;;;;;27.23;9.60;;;17.40;99.90;;;;;;5059163;28;20055;-70
2023/10/11 08:59:58;;;;;;;16.02;8.05;;;17.30;99.90;;;;;;5091123;27;20058;-69
2023/10/11 09:02:28;;;;;;;17.33;8.23;;;17.30;99.90;;;;;;5066578;28;20052;-70
2023/10/11 09:05:28;;;;;;;14.70;7.45;;;17.30;99.90;;;;;;5070068;28;20070;-70
2023/10/11 09:07:55;;;;;;;14.50;7.15;;;17.30;99.90;;;;;;5063687;28;20036;-70
2023/10/11 09:10:32;;;;;;;15.52;6.97;;;17.20;99.90;;;;;;5047090;28;20045;-70
2023/10/11 09:13:00;;;;;;;14.38;7.07;;;17.20;99.90;;;;;;5067119;28;20122;-70
2023/10/11 09:15:43;;;;;;;13.68;7.07;;;17.20;99.90;;;;;;5067806;28;20078;-70
2023/10/11 09:18:17;;;;;;;17.20;7.20;;;17.10;99.90;;;;;;5065242;28;20068;-70
2023/10/11 09:23:46;;;;;;;16.73;6.35;;;17.30;99.90;;;;;;5069519;28;20101;-70
2023/10/11 09:26:32;;;;;;;15.27;7.70;;;17.30;99.90;;;;;;5072674;28;20060;-70
2023/10/11 09:29:03;;;;;;;18.60;6.93;;;17.30;99.90;;;;;;5067564;28;20078;-70
2023/10/11 09:31:33;;;;;;;17.30;7.60;;;17.30;99.90;;;;;;5066094;28;20429;-70
2023/10/11 09:34:07;;;;;;;17.92;6.88;;;17.40;99.90;;;;;;5066653;28;20051;-70
2023/10/11 09:36:33;;;;;;;14.48;7.03;;;17.40;99.90;;;;;;5098599;28;20645;-70
2023/10/11 09:39:02;;;;;;;19.48;7.03;;;17.40;99.90;;;;;;5068717;28;20798;-70
2023/10/11 09:41:38;;;;;;;17.52;7.53;;;17.50;99.90;;;;;;5064378;28;20045;-70
2023/10/11 09:44:05;;;;;;;18.17;7.68;;;17.50;99.90;;;;;;5063846;28;20595;-70
2023/10/11 09:46:34;;;;;;;16.10;6.53;;;17.50;99.90;;;;;;5062371;28;20831;-69
2023/10/11 09:49:02;;;;;;;16.10;7.00;;;17.50;99.90;;;;;;5095421;28;20098;-70
2023/10/11 09:51:29;;;;;;;19.08;7.38;;;17.60;99.90;;;;;;5066267;28;20405;-70
2023/10/11 09:54:01;;;;;;;17.55;6.47;;;17.50;99.90;;;;;;5068919;28;20177;-70
2023/10/11 09:56:36;;;;;;;11.98;6.55;;;17.60;99.90;;;;;;5065571;28;20154;-70
2023/10/11 09:59:24;;;;;;;15.73;6.82;;;17.60;99.90;;;;;;5058104;28;20061;-70
2023/10/11 10:02:21;;;;;;;19.90;7.00;;;17.60;99.90;;;;;;5100473;27;20041;-70
2023/10/11 10:04:50;;;;;;;17.10;6.72;;;17.60;99.90;;;;;;5052145;28;20060;-69
2023/10/11 10:07:33;;;;;;;18.45;7.00;;;17.60;99.90;;;;;;5064442;28;20540;-70
2023/10/11 10:10:00;;;;;;;18.35;6.57;;;17.70;99.90;;;;;;5064231;28;20496;-70
2023/10/11 10:12:40;;;;;;;18.10;6.80;;;17.70;99.90;;;;;;5063484;28;20083;-70
2023/10/11 10:15:13;;;;;;;13.95;6.20;;;17.80;99.90;;;;;;5055132;28;20817;-69
2023/10/11 10:18:05;;;;;;;15.25;6.22;;;17.80;99.90;;;;;;5055821;28;20040;-69
2023/10/11 10:20:34;;;;;;;15.10;6.18;;;17.80;99.90;;;;;;5037655;28;20059;-69
2023/10/11 10:23:15;;;;;;;14.55;6.10;;;17.90;99.90;;;;;;5054726;28;20052;-69
2023/10/11 10:26:04;;;;;;;13.50;4.93;;;17.90;99.90;;;;;;5056993;28;20077;-70
2023/10/11 10:28:35;;;;;;;12.07;5.40;;;17.90;99.90;;;;;;5005748;28;20044;-70
2023/10/11 10:31:09;;;;;;;16.48;5.68;;;17.90;99.90;;;;;;5057862;28;21003;-70
2023/10/11 10:33:35;;;;;;;11.48;4.80;;;17.80;99.90;;;;;;5060606;28;20114;-71
2023/10/11 10:36:20;;;;;;;13.18;5.30;;;17.90;99.90;;;;;;5054943;28;20791;-68
2023/10/11 10:38:58;;;;;;;15.18;4.97;;;17.90;99.90;;;;;;5060660;28;20056;-68
2023/10/11 10:41:25;;;;;;;11.48;5.10;;;18.00;99.90;;;;;;5059585;28;20608;-68
2023/10/11 10:44:11;;;;;;;13.20;4.90;;;18.00;99.90;;;;;;5056379;28;20047;-69
2023/10/11 10:46:50;;;;;;;17.70;5.57;;;18.10;99.90;;;;;;5059477;28;20137;-71
2023/10/11 10:49:21;;;;;;;13.02;4.93;;;18.10;99.90;;;;;;5057197;28;20041;-69
2023/10/11 10:51:47;;;;;;;12.55;4.47;;;18.20;99.90;;;;;;5055281;28;20048;-69
2023/10/11 10:54:23;;;;;;;14.60;4.72;;;18.20;99.90;;;;;;5059902;28;20039;-70
2023/10/11 10:56:53;;;;;;;10.77;4.43;;;18.30;99.90;;;;;;5059002;28;20519;-70
2023/10/11 10:59:22;;;;;;;10.15;4.43;;;18.40;99.90;;;;;;5060668;28;20047;-69
2023/10/11 11:01:50;;;;;;;14.18;4.38;;;18.40;99.90;;;;;;5061549;28;20048;-70
2023/10/11 11:04:22;;;;;;;11.38;3.55;;;18.50;99.90;;;;;;5061183;28;20060;-70
2023/10/11 11:06:50;;;;;;;12.95;4.22;;;18.50;99.90;;;;;;5061100;28;20060;-69
2023/10/11 11:09:26;;;;;;;13.13;4.53;;;18.50;99.90;;;;;;5054281;28;20221;-69
2023/10/11 11:11:55;;;;;;;12.98;4.30;;;18.50;99.90;;;;;;5063125;28;20048;-69
2023/10/11 11:14:23;;;;;;;10.98;4.78;;;18.50;99.90;;;;;;5056807;28;20127;-70
2023/10/11 11:17:00;;;;;;;11.10;4.00;;;18.50;99.90;;;;;;5056298;28;20505;-69
2023/10/11 11:19:26;;;;;;;11.68;3.80;;;18.50;99.90;;;;;;5057622;28;22205;-69
2023/10/11 11:22:11;;;;;;;12.30;3.20;;;18.50;99.90;;;;;;5057851;28;20581;-71
2023/10/11 11:24:41;;;;;;;11.43;3.67;;;18.50;99.90;;;;;;5039987;28;20501;-71
2023/10/11 11:27:32;;;;;;;14.18;3.90;;;18.50;99.90;;;;;;5059673;28;20098;-69
2023/10/11 11:30:02;;;;;;;8.63;3.38;;;18.50;99.90;;;;;;5057765;28;20056;-70
2023/10/11 11:32:38;;;;;;;7.72;3.30;;;18.50;99.90;;;;;;5092248;27;20051;-69
2023/10/11 11:35:53;;;;;;;11.60;4.10;;;18.50;99.90;;;;;;5041363;28;20036;-69
2023/10/11 11:38:02;;;;;;;10.75;3.80;;;18.50;99.90;;;;;;5049637;28;20049;-70
2023/10/11 11:40:36;;;;;;;11.10;3.42;;;18.60;99.90;;;;;;5058688;28;20048;-71
2023/10/11 11:43:06;;;;;;;9.52;3.00;;;18.60;99.90;;;;;;5056442;28;20052;-70
2023/10/11 11:45:35;;;;;;;11.32;3.33;;;18.60;99.90;;;;;;5041711;28;20723;-69
2023/10/11 11:48:03;;;;;;;8.25;3.35;;;18.60;99.90;;;;;;5061111;28;20073;-71
2023/10/11 11:50:37;;;;;;;11.93;3.85;;;18.60;99.90;;;;;;5043128;28;20780;-70
2023/10/11 11:53:04;;;;;;;11.70;3.42;;;18.60;99.90;;;;;;5056794;28;20085;-70
2023/10/11 11:55:41;;;;;;;11.70;3.90;;;18.70;99.90;;;;;;5057690;28;20040;-70
2023/10/11 11:58:10;;;;;;;8.50;3.28;;;18.70;99.90;;;;;;5061396;28;20086;-70
2023/10/11 12:00:40;;;;;;;11.90;4.03;;;18.70;99.90;;;;;;5060524;28;20102;-69
2023/10/11 12:03:08;;;;;;;10.45;2.92;;;18.80;99.90;;;;;;5072433;27;20119;-69
2023/10/11 12:05:37;;;;;;;12.25;3.85;;;18.80;99.90;;;;;;5058843;28;20597;-70
2023/10/11 12:08:08;;;;;;;8.23;3.25;;;18.80;99.90;;;;;;5065397;28;20048;-69
2023/10/11 12:10:36;;;;;;;12.52;3.70;;;18.90;99.90;;;;;;5072915;28;20048;-70
2023/10/11 12:13:05;;;;;;;11.70;3.65;;;18.90;99.90;;;;;;5070598;28;20051;-70
2023/10/11 12:15:37;;;;;;;14.63;3.33;;;18.90;99.90;;;;;;5064336;28;20538;-71
2023/10/11 12:18:05;;;;;;;14.77;4.22;;;18.90;99.90;;;;;;5067133;28;20578;-70
2023/10/11 12:20:35;;;;;;;9.90;3.38;;;18.90;99.90;;;;;;5069538;28;20063;-70
2023/10/11 12:23:11;;;;;;;11.95;4.03;;;18.90;99.90;;;;;;5067471;28;20051;-71
2023/10/11 12:25:38;;;;;;;9.23;3.30;;;18.90;99.90;;;;;;5073131;28;20048;-71
2023/10/11 12:28:08;;;;;;;10.57;3.60;;;18.80;99.90;;;;;;5074807;28;20043;-71
2023/10/11 12:30:34;;;;;;;9.37;3.57;;;18.80;99.90;;;;;;5068316;28;20085;-69
2023/10/11 12:33:06;;;;;;;11.88;3.60;;;18.80;99.90;;;;;;5071596;28;20401;-69
2023/10/11 12:35:37;;;;;;;11.95;3.42;;;18.90;99.90;;;;;;5047031;28;20169;-67
2023/10/11 12:38:03;;;;;;;11.88;3.05;;;18.80;99.90;;;;;;5065601;28;20048;-67
2023/10/11 12:40:28;;;;;;;7.85;2.80;;;18.90;99.90;;;;;;5071591;28;20044;-67
2023/10/11 12:42:57;;;;;;;13.27;3.65;;;18.80;99.90;;;;;;5062756;28;20059;-67
2023/10/11 12:45:23;;;;;;;8.55;2.95;;;18.90;99.90;;;;;;5062736;28;20047;-66
2023/10/11 12:47:50;;;;;;;16.75;3.50;;;18.90;99.90;;;;;;5058569;28;20645;-67
2023/10/11 12:50:17;;;;;;;8.98;2.80;;;18.90;99.90;;;;;;5070042;28;20056;-66
2023/10/11 12:52:45;;;;;;;10.63;2.92;;;18.90;99.90;;;;;;5070553;28;20048;-68
2023/10/11 12:55:12;;;;;;;10.23;2.90;;;19.00;99.90;;;;;;5064182;28;20148;-67
2023/10/11 12:57:41;;;;;;;12.32;2.95;;;19.00;99.90;;;;;;5072692;28;20090;-70
2023/10/11 13:00:31;;;;;;;8.80;3.08;;;18.90;99.90;;;;;;5071227;28;20421;-70
2023/10/11 13:03:13;;;;;;;9.77;2.95;;;18.90;99.90;;;;;;5069375;28;20043;-70
2023/10/11 13:05:39;;;;;;;7.97;3.25;;;18.90;99.90;;;;;;5071151;28;20068;-69
2023/10/11 13:08:05;;;;;;;9.02;3.03;;;18.90;99.90;;;;;;5096730;28;20526;-70
2023/10/11 13:10:33;;;;;;;11.13;3.38;;;18.90;99.90;;;;;;5063435;28;20036;-69
2023/10/11 13:12:59;;;;;;;14.40;4.22;;;18.90;99.90;;;;;;5071148;28;20056;-70
2023/10/11 13:15:27;;;;;;;10.25;3.22;;;18.90;99.90;;;;;;5068542;28;20033;-69
2023/10/11 13:17:53;;;;;;;10.18;3.42;;;18.90;99.90;;;;;;5080092;28;20053;-70
2023/10/11 13:20:19;;;;;;;14.13;3.83;;;18.90;99.90;;;;;;5074549;28;20749;-69
2023/10/11 13:22:49;;;;;;;11.20;3.40;;;18.90;99.90;;;;;;5065911;28;20048;-70
2023/10/11 13:25:25;;;;;;;9.82;3.53;;;18.90;99.90;;;;;;5071861;28;20512;-68
2023/10/11 13:27:54;;;;;;;10.13;3.65;;;18.90;99.90;;;;;;5066553;28;20039;-68
2023/10/11 13:30:25;;;;;;;11.57;3.95;;;18.90;99.90;;;;;;5083853;28;20055;-70
2023/10/11 13:32:51;;;;;;;11.02;3.50;;;18.80;99.90;;;;;;5073471;28;20101;-69
2023/10/11 13:35:21;;;;;;;11.55;3.30;;;18.80;99.90;;;;;;5073498;28;20068;-69
2023/10/11 13:37:47;;;;;;;9.93;2.97;;;18.80;99.90;;;;;;5102119;27;20048;-69
2023/10/11 13:40:17;;;;;;;16.17;4.15;;;18.80;99.90;;;;;;5073716;28;20897;-69
2023/10/11 13:42:43;;;;;;;13.68;4.50;;;18.70;99.90;;;;;;5071968;28;20056;-69
2023/10/11 13:45:16;;;;;;;16.80;5.68;;;18.70;99.90;;;;;;5075591;28;20525;-70
2023/10/11 13:47:42;;;;;;;12.38;4.05;;;18.70;99.90;;;;;;5071618;28;20497;-70
2023/10/11 13:50:20;;;;;;;12.57;3.90;;;18.70;99.90;;;;;;5074808;28;20047;-70
2023/10/11 13:52:49;;;;;;;15.35;4.28;;;18.70;99.90;;;;;;5080514;28;20075;-70